Time;durP1;ratioP1;P1;durP2;ratioP2;P2;SDS_P1;SDS_P2;PMS_P1;PMS_P2;Temp;Humidity;BMP_temperature;BMP_pressure;BME280_temperature;BME280_humidity;BME280_pressure;Samples;Min_cycle;Max_cycle;Signal;HPM_P1;HPM_P2
2023/09/27 00:02:14;;;;;;;27.98;13.05;;;;;;;-142.57;95.44;59402.34;5019019;28;20021;-82
2023/09/27 00:04:56;;;;;;;22.80;14.20;;;;;;;-142.57;95.93;59432.69;5015472;28;20200;-83
2023/09/27 00:07:21;;;;;;;22.55;13.07;;;;;;;-142.57;96.07;59420.53;5015434;28;20539;-83
2023/09/27 00:09:47;;;;;;;25.70;14.95;;;;;;;-142.57;97.10;59343.69;5015748;28;20076;-83
2023/09/27 00:12:12;;;;;;;22.33;14.50;;;;;;;-142.57;99.21;59327.50;5015472;28;20033;-82
2023/09/27 00:14:38;;;;;;;24.17;14.18;;;;;;;-142.57;99.26;59299.19;5015567;28;20134;-82
2023/09/27 00:17:03;;;;;;;27.92;15.57;;;;;;;-142.57;100.00;59244.59;5016124;28;20061;-82
2023/09/27 00:19:30;;;;;;;26.48;14.70;;;;;;;-142.57;100.00;59270.88;5016795;28;20030;-83
2023/09/27 00:21:56;;;;;;;26.48;14.85;;;;;;;-142.57;99.76;59327.50;5016928;28;20030;-83
2023/09/27 00:24:21;;;;;;;28.58;15.25;;;;;;;-142.57;100.00;59307.28;5015468;28;20368;-83
2023/09/27 00:26:47;;;;;;;23.00;14.18;;;;;;;-142.57;100.00;59226.41;5016272;28;20486;-84
2023/09/27 00:29:12;;;;;;;23.85;14.30;;;;;;;-142.57;100.00;59194.03;5014011;28;20022;-81
2023/09/27 00:31:38;;;;;;;30.65;14.13;;;;;;;-142.57;100.00;59133.38;5015238;28;20038;-81
2023/09/27 00:34:04;;;;;;;27.33;14.43;;;;;;;-142.57;100.00;59181.91;5014582;28;20029;-81
2023/09/27 00:36:30;;;;;;;27.75;14.50;;;;;;;-142.57;100.00;59226.41;5015158;28;20042;-83
2023/09/27 00:38:55;;;;;;;26.77;15.15;;;;;;;-142.57;100.00;59317.41;5014161;28;20041;-82
2023/09/27 00:41:22;;;;;;;26.38;14.18;;;;;;;-142.57;100.00;59270.88;5014747;28;20030;-82
2023/09/27 00:43:48;;;;;;;23.45;13.68;;;;;;;-142.57;100.00;59283.03;5013189;28;20140;-82
2023/09/27 00:46:16;;;;;;;25.25;13.45;;;;;;;-142.57;100.00;59313.34;5015086;28;20550;-82
2023/09/27 00:48:42;;;;;;;24.75;14.23;;;;;;;-142.57;100.00;59299.19;5013404;28;20113;-83
2023/09/27 00:51:08;;;;;;;28.55;14.70;;;;;;;-142.57;100.00;59254.72;5014706;28;20033;-82
2023/09/27 00:53:37;;;;;;;23.92;14.00;;;;;;;-142.57;100.00;59214.25;5013798;28;20076;-83
2023/09/27 00:56:04;;;;;;;25.35;14.77;;;;;;;-142.57;100.00;59161.69;5014597;28;20034;-82
2023/09/27 00:58:34;;;;;;;24.08;14.80;;;;;;;-142.57;100.00;59167.75;5013237;28;20376;-82
2023/09/27 01:01:00;;;;;;;29.25;15.82;;;;;;;-142.57;100.00;59270.88;5014309;28;20113;-82
2023/09/27 01:03:26;;;;;;;24.05;14.90;;;;;;;-142.57;100.00;59270.88;5014676;28;20454;-82
2023/09/27 01:05:52;;;;;;;22.98;14.88;;;;;;;-142.57;100.00;59157.63;5013089;28;20050;-81
2023/09/27 01:08:18;;;;;;;25.80;14.75;;;;;;;-142.57;100.00;59181.91;5014710;28;20450;-82
2023/09/27 01:10:45;;;;;;;18.30;12.60;;;;;;;-142.57;100.00;59256.72;5014504;28;20042;-83
2023/09/27 01:13:12;;;;;;;24.90;13.75;;;;;;;-142.57;100.00;59240.56;5014675;28;20058;-83
2023/09/27 01:15:37;;;;;;;27.00;14.85;;;;;;;-142.57;100.00;59117.19;5013210;28;20029;-82
2023/09/27 01:18:03;;;;;;;20.55;13.85;;;;;;;-142.57;100.00;59147.53;5014537;28;20034;-82
2023/09/27 01:20:32;;;;;;;27.98;14.80;;;;;;;-142.57;100.00;59088.88;5015736;28;20157;-83
2023/09/27 01:23:06;;;;;;;23.50;14.07;;;;;;;-142.57;100.00;59038.31;5014017;28;20045;-83
2023/09/27 01:25:37;;;;;;;31.05;15.23;;;;;;;-142.57;100.00;59060.56;4996863;28;20030;-83
2023/09/27 01:28:05;;;;;;;31.08;14.52;;;;;;;-142.57;100.00;59020.13;5013408;28;20034;-83
2023/09/27 01:30:34;;;;;;;27.27;14.32;;;;;;;-142.57;100.00;59068.66;5016014;28;20037;-84
2023/09/27 01:33:10;;;;;;;24.80;14.60;;;;;;;-142.57;100.00;59159.66;5032120;28;20044;-84
2023/09/27 01:35:40;;;;;;;22.08;14.38;;;;;;;-142.57;100.00;59206.16;5013308;28;20038;-83
2023/09/27 01:38:07;;;;;;;25.48;14.15;;;;;;;-142.57;100.00;59238.53;5015305;28;20491;-83
2023/09/27 01:40:36;;;;;;;21.77;14.35;;;;;;;-142.57;100.00;59147.53;5015241;28;20037;-83
2023/09/27 01:43:03;;;;;;;22.23;14.00;;;;;;;-142.57;100.00;59101.00;5014465;28;20115;-82
2023/09/27 01:45:30;;;;;;;21.77;13.38;;;;;;;-142.57;100.00;59137.41;5015294;28;21045;-81
2023/09/27 01:47:59;;;;;;;24.40;14.40;;;;;;;-142.57;100.00;59066.63;5015268;28;20025;-83
2023/09/27 01:50:26;;;;;;;23.95;13.60;;;;;;;-142.57;100.00;59014.06;5013358;28;20042;-83
2023/09/27 01:52:53;;;;;;;27.10;14.38;;;;;;;-142.57;100.00;58965.53;5012484;28;20030;-82
2023/09/27 01:55:19;;;;;;;23.58;13.57;;;;;;;-142.57;100.00;58999.91;4996843;28;20117;-82
2023/09/27 01:57:45;;;;;;;19.52;13.13;;;;;;;-142.57;100.00;58971.59;5015142;28;20394;-82
2023/09/27 02:00:15;;;;;;;25.50;14.25;;;;;;;-142.57;100.00;58983.72;5014886;28;20447;-81
2023/09/27 02:02:43;;;;;;;20.42;12.55;;;;;;;-142.57;100.00;59012.03;5013881;28;20125;-82
2023/09/27 02:05:09;;;;;;;22.30;12.82;;;;;;;-142.57;100.00;59080.78;4997464;28;20060;-81
2023/09/27 02:07:38;;;;;;;21.27;13.38;;;;;;;-142.57;100.00;59109.09;5014237;28;20447;-82
2023/09/27 02:10:07;;;;;;;22.52;12.80;;;;;;;-142.57;100.00;59105.06;5014296;28;20554;-83
2023/09/27 02:12:33;;;;;;;22.98;13.45;;;;;;;-142.57;100.00;58991.81;5014964;28;20029;-82
2023/09/27 02:15:02;;;;;;;26.35;13.68;;;;;;;-142.57;100.00;58830.03;5016419;28;20038;-82
2023/09/27 02:17:27;;;;;;;20.90;12.95;;;;;;;-142.57;100.00;58882.63;5037253;28;20014;-84
2023/09/27 02:19:53;;;;;;;23.35;13.57;;;;;;;-142.57;100.00;58886.66;5036402;28;20036;-82
2023/09/27 02:22:18;;;;;;;21.95;13.40;;;;;;;-142.57;100.00;58834.09;5020562;28;20112;-81
2023/09/27 02:24:44;;;;;;;21.35;12.20;;;;;;;-142.57;100.00;58888.69;5014680;28;20034;-82
2023/09/27 02:27:10;;;;;;;19.08;12.07;;;;;;;-142.57;100.00;58947.31;5013215;28;20038;-81
2023/09/27 02:29:40;;;;;;;24.70;12.95;;;;;;;-142.57;100.00;59001.91;5013632;28;20457;-83
2023/09/27 02:32:07;;;;;;;23.20;12.48;;;;;;;-142.57;100.00;58906.88;5012953;28;20049;-81
2023/09/27 02:34:33;;;;;;;21.58;12.00;;;;;;;-142.57;100.00;58813.88;5013485;28;20042;-81
2023/09/27 02:36:59;;;;;;;31.30;12.73;;;;;;;-142.57;100.00;58821.94;5012660;28;20029;-82
2023/09/27 02:39:25;;;;;;;22.73;13.05;;;;;;;-142.57;100.00;58797.69;5011647;28;20495;-82
2023/09/27 02:41:51;;;;;;;20.70;12.68;;;;;;;-142.57;100.00;58813.88;5012682;28;20104;-81
2023/09/27 02:44:16;;;;;;;21.42;12.10;;;;;;;-142.57;100.00;58967.53;5011977;28;20085;-81
2023/09/27 02:46:46;;;;;;;23.98;13.13;;;;;;;-142.57;100.00;58902.84;5013089;28;20045;-83
2023/09/27 02:49:13;;;;;;;22.45;13.48;;;;;;;-142.57;100.00;58832.06;5012107;28;20040;-81
2023/09/27 02:51:40;;;;;;;22.90;11.60;;;;;;;-142.57;100.00;58830.03;5022426;28;20056;-84
2023/09/27 02:54:06;;;;;;;19.23;11.98;;;;;;;-142.57;100.00;58878.56;5031689;28;20040;-87
2023/09/27 02:56:31;;;;;;;20.77;12.18;;;;;;;-142.57;100.00;58917.00;5047413;28;20402;-84
2023/09/27 02:58:57;;;;;;;21.30;12.15;;;;;;;-142.57;100.00;58931.16;5047322;28;20033;-82
2023/09/27 03:01:24;;;;;;;20.95;12.23;;;;;;;-142.57;100.00;58925.06;5043997;28;20030;-86
2023/09/27 03:03:51;;;;;;;26.02;13.27;;;;;;;-142.57;100.00;58876.53;5046008;28;20038;-87
2023/09/27 03:06:17;;;;;;;23.27;12.13;;;;;;;-142.57;100.00;58757.25;5042375;28;20040;-82
2023/09/27 03:08:43;;;;;;;26.15;13.35;;;;;;;-142.57;100.00;58722.88;5035875;28;20382;-82
2023/09/27 03:11:12;;;;;;;23.00;13.13;;;;;;;-142.57;100.00;58783.53;5036959;28;20037;-82
2023/09/27 03:13:40;;;;;;;19.65;11.15;;;;;;;-142.57;100.00;58898.78;5036059;28;20040;-82
2023/09/27 03:16:06;;;;;;;19.15;12.50;;;;;;;-142.57;100.00;58805.78;5035374;28;20032;-82
2023/09/27 03:18:32;;;;;;;22.95;12.27;;;;;;;-142.57;100.00;58801.72;5035218;28;20037;-82
2023/09/27 03:20:59;;;;;;;23.08;12.48;;;;;;;-142.57;100.00;58730.97;5036457;28;20022;-81
2023/09/27 03:23:26;;;;;;;18.45;11.27;;;;;;;-142.57;100.00;58730.97;5036216;28;20041;-82
2023/09/27 03:25:53;;;;;;;20.08;12.27;;;;;;;-142.57;100.00;58682.44;5035824;28;20367;-82
2023/09/27 03:28:20;;;;;;;24.83;12.95;;;;;;;-142.57;100.00;58712.75;5036157;28;20434;-82
2023/09/27 03:30:47;;;;;;;23.90;13.80;;;;;;;-142.57;100.00;58688.50;5018702;28;20045;-81
2023/09/27 03:33:13;;;;;;;23.67;14.57;;;;;;;-142.57;100.00;58668.28;5017948;28;20032;-81
2023/09/27 03:35:38;;;;;;;26.80;13.90;;;;;;;-142.57;100.00;58732.97;5035760;28;20037;-82
2023/09/27 03:38:05;;;;;;;23.92;13.23;;;;;;;-142.57;100.00;58656.13;5036274;28;20120;-82
2023/09/27 03:40:31;;;;;;;24.33;13.45;;;;;;;-142.57;100.00;58694.56;5034721;28;20439;-80
2023/09/27 03:42:56;;;;;;;23.67;13.82;;;;;;;-142.57;100.00;58724.88;5035759;28;20069;-84
2023/09/27 03:45:22;;;;;;;25.83;14.65;;;;;;;-142.57;100.00;58635.91;5035955;28;20033;-83
2023/09/27 03:47:48;;;;;;;29.98;15.75;;;;;;;-142.57;100.00;58745.09;5036648;28;20036;-82
2023/09/27 03:50:17;;;;;;;25.00;13.85;;;;;;;-142.57;100.00;58757.25;5034887;28;20129;-83
2023/09/27 03:52:43;;;;;;;23.08;13.50;;;;;;;-142.57;100.00;58779.50;5034691;28;20060;-81
2023/09/27 03:55:11;;;;;;;22.05;13.75;;;;;;;-142.57;100.00;58789.59;5036110;28;20033;-82
2023/09/27 03:57:37;;;;;;;25.27;14.25;;;;;;;-142.57;100.00;58846.22;5034149;28;20077;-81
2023/09/27 04:00:12;;;;;;;30.48;14.55;;;;;;;-142.57;100.00;58660.19;5034182;28;20057;-82
2023/09/27 04:02:38;;;;;;;24.15;13.75;;;;;;;-142.57;100.00;58593.47;5035391;28;20098;-82
2023/09/27 04:05:05;;;;;;;33.92;15.32;;;;;;;-142.57;100.00;58567.16;5018478;28;20033;-82
2023/09/27 04:07:30;;;;;;;26.80;13.82;;;;;;;-142.57;100.00;58571.22;5034460;28;20037;-82
2023/09/27 04:09:57;;;;;;;29.08;15.07;;;;;;;-142.57;100.00;58668.28;5034109;28;20111;-81
2023/09/27 04:12:22;;;;;;;27.00;13.43;;;;;;;-142.57;100.00;58652.09;5033479;28;20088;-82
2023/09/27 04:14:48;;;;;;;27.65;13.65;;;;;;;-142.57;100.00;58575.25;5036705;28;20044;-81
2023/09/27 04:17:13;;;;;;;22.48;12.93;;;;;;;-142.57;100.00;58672.31;5035187;28;20041;-81
2023/09/27 04:19:39;;;;;;;21.38;12.38;;;;;;;-142.57;100.00;58674.34;5034298;28;20083;-82
2023/09/27 04:22:05;;;;;;;24.60;13.75;;;;;;;-142.57;100.00;58730.97;5036794;28;20037;-84
2023/09/27 04:24:31;;;;;;;43.33;13.27;;;;;;;-142.57;100.00;58551.00;5035080;28;20069;-84
2023/09/27 04:26:57;;;;;;;25.05;11.85;;;;;;;-142.57;100.00;58623.78;5035335;28;20033;-81
2023/09/27 04:29:23;;;;;;;29.90;12.23;;;;;;;-142.57;100.00;58694.56;5036618;28;20028;-87
2023/09/27 04:31:48;;;;;;;22.52;12.43;;;;;;;-142.57;100.00;58753.19;5036443;28;20042;-84
2023/09/27 04:34:15;;;;;;;27.55;13.75;;;;;;;-142.57;100.00;58660.19;5037111;28;20034;-82
2023/09/27 04:36:40;;;;;;;24.73;13.30;;;;;;;-142.57;100.00;58599.53;5033889;28;20072;-84
2023/09/27 04:39:11;;;;;;;27.35;13.82;;;;;;;-142.57;100.00;58629.84;5033819;28;20133;-84
2023/09/27 04:41:36;;;;;;;26.70;12.93;;;;;;;-142.57;100.00;58599.53;5035489;28;20034;-83
2023/09/27 04:44:02;;;;;;;29.63;13.70;;;;;;;-142.57;100.00;58555.03;5033493;28;20032;-84
2023/09/27 04:46:28;;;;;;;26.23;13.05;;;;;;;-142.57;100.00;58555.03;5033631;28;20094;-83
2023/09/27 04:48:54;;;;;;;19.08;12.20;;;;;;;-142.57;100.00;58546.94;5034863;28;20033;-82
2023/09/27 04:51:20;;;;;;;28.90;12.95;;;;;;;-142.57;100.00;58524.72;5033606;28;20033;-82
2023/09/27 04:53:45;;;;;;;23.65;12.13;;;;;;;-142.57;100.00;58530.78;5034148;28;20451;-86
2023/09/27 04:56:11;;;;;;;21.73;12.40;;;;;;;-142.57;100.00;58571.22;5039561;28;20038;-84
2023/09/27 04:58:38;;;;;;;32.70;12.63;;;;;;;-142.57;100.00;58639.97;5033166;28;20065;-84
2023/09/27 05:01:05;;;;;;;20.70;11.90;;;;;;;-142.57;100.00;58668.28;5037353;28;20029;-86
2023/09/27 05:03:31;;;;;;;20.70;12.85;;;;;;;-142.57;100.00;58718.81;5036244;28;20137;-87
2023/09/27 05:05:57;;;;;;;26.98;11.50;;;;;;;-142.57;100.00;58747.13;5036966;28;20080;-86
2023/09/27 05:08:24;;;;;;;37.13;13.85;;;;;;;-142.57;100.00;58743.09;5037301;28;20021;-86
2023/09/27 05:10:50;;;;;;;26.75;12.90;;;;;;;-142.57;100.00;58785.56;5038341;28;20037;-85
2023/09/27 05:13:21;;;;;;;30.00;13.32;;;;;;;-142.57;100.00;58755.22;5036690;28;20414;-86
2023/09/27 05:15:48;;;;;;;26.33;13.27;;;;;;;-142.57;100.00;58785.56;5042391;28;20033;-87
2023/09/27 05:18:13;;;;;;;59.97;12.13;;;;;;;-142.57;100.00;58745.09;5035447;28;20033;-85
2023/09/27 05:20:39;;;;;;;33.72;12.20;;;;;;;-142.57;100.00;58767.34;5017626;28;20403;-84
2023/09/27 05:23:05;;;;;;;35.92;13.20;;;;;;;-142.57;100.00;58698.59;5035013;28;20040;-86
2023/09/27 05:25:30;;;;;;;23.13;12.52;;;;;;;-142.57;100.00;58749.16;5050413;28;20064;-84
2023/09/27 05:28:00;;;;;;;29.77;13.00;;;;;;;-142.57;100.00;58718.81;5043898;28;20025;-86
2023/09/27 05:30:25;;;;;;;28.10;13.50;;;;;;;-142.57;100.00;58700.63;5047569;28;20052;-85
2023/09/27 05:32:51;;;;;;;29.55;12.88;;;;;;;-142.57;100.00;58607.63;5056532;28;20045;-85
2023/09/27 05:35:17;;;;;;;27.25;13.00;;;;;;;-142.57;100.00;58724.88;5050934;28;20063;-86
2023/09/27 05:37:43;;;;;;;23.25;13.23;;;;;;;-142.57;100.00;58830.03;5055607;28;20033;-86
2023/09/27 05:40:10;;;;;;;37.70;13.75;;;;;;;-142.57;100.00;58852.28;5044712;28;20033;-85
2023/09/27 05:42:40;;;;;;;31.83;13.23;;;;;;;-142.57;100.00;58975.63;5035471;28;20034;-86
2023/09/27 05:45:07;;;;;;;28.00;13.30;;;;;;;-142.57;100.00;58959.47;5036718;28;20099;-86
2023/09/27 05:47:33;;;;;;;26.80;12.68;;;;;;;-142.57;100.00;58953.38;5032915;28;20034;-84
2023/09/27 05:49:58;;;;;;;25.25;11.60;;;;;;;-142.57;100.00;58931.16;5032886;28;20041;-84
2023/09/27 05:52:25;;;;;;;35.15;12.73;;;;;;;-142.57;100.00;59068.66;5033497;28;20029;-85
2023/09/27 05:54:51;;;;;;;28.67;12.77;;;;;;;-142.57;100.00;59080.78;5032205;28;20044;-85
2023/09/27 05:57:17;;;;;;;22.05;12.50;;;;;;;-142.57;100.00;59088.88;5033373;28;20049;-85
2023/09/27 05:59:44;;;;;;;17.90;11.65;;;;;;;-142.57;100.00;59165.72;5033106;28;20064;-83
2023/09/27 06:02:16;;;;;;;23.75;13.27;;;;;;;-142.57;100.00;59274.94;5032349;28;20030;-85
2023/09/27 06:04:46;;;;;;;27.35;11.20;;;;;;;-142.57;100.00;59341.66;5033162;28;20041;-86
2023/09/27 06:07:14;;;;;;;25.02;11.90;;;;;;;-142.57;97.62;59641.00;5033351;28;20034;-85
2023/09/27 06:09:41;;;;;;;18.85;11.30;;;;;;;-142.57;89.87;60011.13;5034546;28;20025;-81
2023/09/27 06:12:07;;;;;;;26.13;11.88;;;;;;;-142.57;89.25;59845.28;5033441;28;20033;-82
2023/09/27 06:14:34;;;;;;;19.42;11.07;;;;;;;-142.57;92.08;59689.53;5033030;28;20120;-81
2023/09/27 06:17:05;;;;;;;25.58;12.45;;;;;;;-142.57;89.99;59871.56;5031853;28;20561;-83
2023/09/27 06:19:31;;;;;;;24.90;11.27;;;;;;;-142.57;90.21;59792.69;5031937;28;20037;-82
2023/09/27 06:22:00;;;;;;;29.65;13.43;;;;;;;-142.57;90.08;59843.25;5033145;28;20018;-82
2023/09/27 06:24:26;;;;;;;27.90;13.05;;;;;;;-142.57;89.10;59954.50;5032891;28;20449;-82
2023/09/27 06:26:52;;;;;;;25.35;13.07;;;;;;;-142.57;85.41;60140.59;5031635;28;20042;-82
2023/09/27 06:29:19;;;;;;;26.38;13.65;;;;;;;-142.57;84.51;60191.16;5033075;28;20533;-83
2023/09/27 06:31:49;;;;;;;24.48;13.02;;;;;;;-142.57;85.95;60268.03;5037229;28;20112;-81
2023/09/27 06:34:15;;;;;;;27.13;13.50;;;;;;;-142.57;83.73;60407.59;5042573;28;20068;-82
2023/09/27 06:36:42;;;;;;;26.95;13.10;;;;;;;-142.57;78.42;60763.66;5039729;28;20897;-82
2023/09/27 06:39:15;;;;;;;45.88;15.00;;;;;;;-142.57;75.67;60897.19;5039661;28;20399;-84
2023/09/27 06:41:41;;;;;;;28.60;13.68;;;;;;;-142.57;75.50;60901.22;5041658;28;20502;-84
2023/09/27 06:44:08;;;;;;;36.08;13.57;;;;;;;-142.57;72.04;61099.50;5037939;28;20029;-84
2023/09/27 06:46:34;;;;;;;27.08;11.95;;;;;;;-142.57;71.67;61382.78;5035756;28;20512;-84
2023/09/27 06:49:01;;;;;;;24.63;11.70;;;;;;;-142.57;63.02;62400.69;5039532;28;20116;-83
2023/09/27 06:51:26;;;;;;;32.17;12.80;;;;;;;-142.57;63.29;62115.31;5041556;28;20103;-84
2023/09/27 06:53:52;;;;;;;35.15;12.57;;;;;;;-142.57;58.70;62999.81;5036959;28;20454;-83
2023/09/27 06:56:18;;;;;;;52.65;15.75;;;;;;;-142.57;54.33;63390.50;5035605;28;20397;-83
2023/09/27 06:58:43;;;;;;;30.98;11.88;;;;;;;-142.57;53.45;63880.47;5036717;28;20037;-84
2023/09/27 07:01:10;;;;;;;33.50;12.07;;;;;;;-142.57;58.20;62742.75;5037218;28;20041;-82
2023/09/27 07:03:36;;;;;;;29.85;12.23;;;;;;;-142.57;59.65;62507.97;5021912;28;20037;-82
2023/09/27 07:06:03;;;;;;;27.00;13.32;;;;;;;-142.57;61.97;62388.53;5039529;28;20490;-80
2023/09/27 07:08:29;;;;;;;27.45;12.00;;;;;;;-142.57;60.80;62580.81;5052800;28;20092;-82
2023/09/27 07:11:02;;;;;;;25.20;12.55;;;;;;;-142.57;61.11;62512.00;5060345;28;20074;-81
2023/09/27 07:13:27;;;;;;;23.60;13.55;;;;;;;-142.57;59.46;62649.63;5047291;28;20037;-82
2023/09/27 07:15:54;;;;;;;23.25;14.18;;;;;;;-142.57;61.74;62390.56;5036559;28;20513;-82
2023/09/27 07:18:20;;;;;;;27.08;14.90;;;;;;;-142.57;59.15;62953.25;5034797;28;20033;-82
2023/09/27 07:20:46;;;;;;;29.60;15.02;;;;;;;-142.57;56.79;63335.84;5035055;28;20017;-84
2023/09/27 07:23:15;;;;;;;28.65;16.35;;;;;;;-142.57;58.55;62811.56;5037249;28;20570;-85
2023/09/27 07:25:44;;;;;;;34.63;15.68;;;;;;;-142.57;57.77;62985.66;5036873;28;20045;-86
2023/09/27 07:28:10;;;;;;;27.20;15.57;;;;;;;-142.57;56.33;63240.72;5036032;28;20029;-82
2023/09/27 07:30:37;;;;;;;27.10;15.93;;;;;;;-142.57;55.68;63210.34;5036067;28;20029;-85
2023/09/27 07:33:09;;;;;;;36.95;16.48;;;;;;;-142.57;55.71;63333.84;5034571;28;20040;-83
2023/09/27 07:35:38;;;;;;;32.67;15.30;;;;;;;-142.57;55.76;63390.50;5034374;28;20072;-85
2023/09/27 07:38:07;;;;;;;31.00;16.58;;;;;;;-142.57;55.74;63331.81;5036343;28;20088;-84
2023/09/27 07:40:33;;;;;;;26.90;15.77;;;;;;;-142.57;54.28;63758.97;5037168;28;20052;-84
2023/09/27 07:42:58;;;;;;;27.73;15.25;;;;;;;-142.57;52.61;63991.81;5035370;28;20037;-83
2023/09/27 07:45:30;;;;;;;34.80;15.43;;;;;;;-142.57;52.39;64178.09;5035028;28;20029;-84
2023/09/27 07:47:56;;;;;;;28.67;14.50;;;;;;;-142.57;52.01;64044.47;5035723;28;20037;-84
2023/09/27 07:50:27;;;;;;;26.52;15.85;;;;;;;-142.57;52.14;64062.69;5036056;28;20437;-84
2023/09/27 07:52:59;;;;;;;28.98;15.25;;;;;;;-142.57;51.15;64220.63;5035869;28;20050;-84
2023/09/27 07:55:25;;;;;;;;;;;;;;;-142.57;51.04;64463.63;5040146;28;20040;-83
2023/09/27 07:57:52;;;;;;;27.90;15.07;;;;;;;-142.57;50.07;64342.13;5020353;28;20337;-85
2023/09/27 08:00:27;;;;;;;23.17;15.27;;;;;;;-142.57;50.18;64309.72;5036706;28;20084;-84
2023/09/27 08:02:55;;;;;;;28.77;14.43;;;;;;;-142.57;48.40;64751.19;5035229;28;20033;-84
2023/09/27 08:05:22;;;;;;;26.27;15.52;;;;;;;-142.57;48.32;64886.84;5034131;28;20041;-83
2023/09/27 08:07:48;;;;;;;30.02;13.57;;;;;;;-142.57;46.75;65150.16;5035745;28;20033;-84
2023/09/27 08:10:15;;;;;;;26.30;15.18;;;;;;;-142.57;47.43;64641.81;5038640;28;20120;-86
2023/09/27 08:12:42;;;;;;;30.02;15.68;;;;;;;-142.57;48.70;64305.66;5038456;28;20427;-85
2023/09/27 08:15:09;;;;;;;27.38;14.77;;;;;;;-142.57;48.16;64520.31;5035593;28;20069;-84
2023/09/27 08:17:35;;;;;;;37.53;15.60;;;;;;;-142.57;46.26;65346.59;5035623;28;20033;-85
2023/09/27 08:20:05;;;;;;;22.83;13.82;;;;;;;-142.57;45.94;65468.13;5035407;28;20139;-84
2023/09/27 08:22:33;;;;;;;30.45;14.85;;;;;;;-142.57;46.77;64969.91;5035475;28;20412;-83
2023/09/27 08:25:30;;;;;;;29.98;13.63;;;;;;;-142.57;44.54;65954.28;5033870;28;20033;-82
2023/09/27 08:27:55;;;;;;;26.27;14.50;;;;;;;-142.57;45.19;65622.06;5033662;28;20092;-85
2023/09/27 08:30:21;;;;;;;22.63;14.25;;;;;;;-142.57;44.87;65518.78;5033456;28;20124;-83
2023/09/27 08:32:47;;;;;;;29.80;14.45;;;;;;;-142.57;43.60;65848.94;5033620;28;20033;-86
2023/09/27 08:35:12;;;;;;;26.98;14.20;;;;;;;-142.57;43.61;65836.78;5033678;28;20478;-84
2023/09/27 08:37:38;;;;;;;24.10;13.80;;;;;;;-142.57;43.98;65553.22;5034840;28;20033;-86
2023/09/27 08:40:12;;;;;;;22.05;13.00;;;;;;;-142.57;44.46;65184.56;5033275;28;20406;-83
2023/09/27 08:42:39;;;;;;;26.00;12.73;;;;;;;-142.57;44.26;65472.19;5033354;28;20052;-84
2023/09/27 08:45:12;;;;;;;22.77;13.52;;;;;;;-142.57;44.05;65589.66;5033444;28;20037;-84
2023/09/27 08:47:42;;;;;;;23.92;13.75;;;;;;;-142.57;44.66;65366.84;5034589;28;20038;-83
2023/09/27 08:50:11;;;;;;;31.63;14.13;;;;;;;-142.57;44.25;65342.56;5035886;28;20140;-84
2023/09/27 08:52:37;;;;;;;24.10;13.85;;;;;;;-142.57;45.39;65016.47;5034022;28;20036;-86
2023/09/27 08:55:06;;;;;;;25.80;13.32;;;;;;;-142.57;44.85;65241.28;5033950;28;20038;-84
2023/09/27 08:57:34;;;;;;;20.10;13.23;;;;;;;-142.57;43.84;65455.97;5016491;28;20422;-83
2023/09/27 09:00:00;;;;;;;22.17;12.45;;;;;;;-142.57;44.57;65344.59;5033183;28;20041;-84
2023/09/27 09:02:27;;;;;;;20.30;11.40;;;;;;;-142.57;43.98;65638.28;5034518;28;20463;-83
2023/09/27 09:04:52;;;;;;;18.15;9.98;;;;;;;-142.57;43.06;65682.84;5035349;28;20029;-85
2023/09/27 09:07:18;;;;;;;15.68;10.00;;;;;;;-142.57;42.60;65526.88;5035586;28;20042;-83
2023/09/27 09:09:45;;;;;;;25.88;10.57;;;;;;;-142.57;42.27;65865.16;5033057;28;20100;-84
2023/09/27 09:12:12;;;;;;;23.90;11.55;;;;;;;-142.57;40.39;66525.59;5034120;28;20528;-84
2023/09/27 09:14:49;;;;;;;22.38;10.48;;;;;;;-142.57;40.20;66300.69;5034190;28;20037;-85
2023/09/27 09:17:17;;;;;;;21.45;9.43;;;;;;;-142.57;40.46;66201.44;5033102;28;20042;-84
2023/09/27 09:19:43;;;;;;;24.65;9.73;;;;;;;-142.57;40.87;66181.19;5034153;28;20037;-82
2023/09/27 09:22:11;;;;;;;21.52;10.35;;;;;;;-142.57;39.94;66302.72;5034067;28;20062;-84
2023/09/27 09:24:46;;;;;;;22.05;9.65;;;;;;;-142.57;38.43;67157.75;5032872;28;20501;-84
2023/09/27 09:27:14;;;;;;;21.38;8.18;;;;;;;-142.57;38.22;67445.50;5034194;28;20052;-85
2023/09/27 09:29:43;;;;;;;24.35;9.00;;;;;;;-142.57;36.35;67733.28;5034511;28;20040;-84
2023/09/27 09:32:09;;;;;;;19.92;8.40;;;;;;;-142.57;36.51;67482.00;5036471;28;20036;-85
2023/09/27 09:34:41;;;;;;;17.60;7.97;;;;;;;-142.57;36.29;67597.50;5034516;28;20116;-86
2023/09/27 09:37:22;;;;;;;21.02;8.55;;;;;;;-142.57;35.39;68246.06;5032587;28;20097;-84
2023/09/27 09:39:50;;;;;;;19.08;7.45;;;;;;;-142.57;35.05;68300.78;5034037;28;20087;-84
2023/09/27 09:42:31;;;;;;;18.05;7.05;;;;;;;-142.57;34.97;68158.91;5033605;28;20429;-84
2023/09/27 09:45:07;;;;;;;26.55;8.05;;;;;;;-142.57;34.56;68438.63;5032737;28;20450;-86
2023/09/27 09:47:37;;;;;;;18.60;6.95;;;;;;;-142.57;34.51;67944.06;5034633;28;20039;-86
2023/09/27 09:50:07;;;;;;;16.88;6.47;;;;;;;-142.57;33.88;68394.03;5034513;28;20029;-86
2023/09/27 09:52:39;;;;;;;15.82;6.30;;;;;;;-142.57;33.33;68550.09;5016419;28;20296;-88
2023/09/27 09:55:06;;;;;;;;;;;;;;;-142.57;33.96;68244.03;5039706;28;20030;-84
2023/09/27 09:57:36;;;;;;;16.60;6.35;;;;;;;-142.57;32.93;68568.34;5036743;28;19913;-84
2023/09/27 10:00:11;;;;;;;18.33;6.05;;;;;;;-142.57;32.50;69038.66;5034490;28;20029;-82
2023/09/27 10:02:47;;;;;;;17.85;5.88;;;;;;;-142.57;31.72;69610.41;5033384;28;20026;-83
2023/09/27 10:05:14;;;;;;;17.58;5.85;;;;;;;-142.57;30.50;70186.28;5032510;28;20072;-87
2023/09/27 10:07:43;;;;;;;14.85;5.43;;;;;;;-142.57;30.19;70709.53;5031365;28;20117;-85
2023/09/27 10:10:09;;;;;;;31.85;6.38;;;;;;;-142.57;29.59;71139.50;5033482;28;20095;-85
2023/09/27 10:12:36;;;;;;;12.77;4.90;;;;;;;-142.57;29.12;71780.53;5032818;28;20034;-85
2023/09/27 10:15:04;;;;;;;15.65;4.72;;;;;;;-142.57;28.25;71650.69;5038938;28;20049;-86
2023/09/27 10:17:31;;;;;;;14.15;5.10;;;;;;;-142.57;28.70;71070.53;5047356;28;20041;-84
2023/09/27 10:20:14;;;;;;;15.05;4.90;;;;;;;-142.57;28.38;70989.41;5055967;28;20052;-85
2023/09/27 10:22:50;;;;;;;19.75;4.90;;;;;;;-142.57;29.00;71236.88;5054481;28;20089;-85
2023/09/27 10:25:30;;;;;;;11.73;4.80;;;;;;;-142.57;29.44;71034.03;5044842;28;20563;-85
2023/09/27 10:28:01;;;;;;;9.68;4.47;;;;;;;-142.57;28.00;72056.44;5042453;28;20026;-87
2023/09/27 10:30:48;;;;;;;17.83;4.65;;;;;;;-142.57;27.99;71488.41;5038744;28;21074;-83
2023/09/27 10:33:16;;;;;;;11.18;5.20;;;;;;;-142.57;28.23;71171.97;5033545;28;20036;-85
2023/09/27 10:35:43;;;;;;;12.95;4.75;;;;;;;-142.57;28.67;70705.47;5033262;28;20120;-86
2023/09/27 10:38:10;;;;;;;21.83;5.38;;;;;;;-142.57;27.35;72287.75;5015388;28;20490;-87
2023/09/27 10:40:46;;;;;;;12.70;4.03;;;;;;;-142.57;26.81;72754.44;5032199;28;20029;-83
2023/09/27 10:43:40;;;;;;;16.75;3.60;;;;;;;-142.57;26.32;72186.28;5033616;28;20041;-86
2023/09/27 10:46:07;;;;;;;15.27;3.80;;;;;;;-142.57;26.38;72543.41;5033912;28;20041;-84
2023/09/27 10:48:33;;;;;;;14.80;3.47;;;;;;;-142.57;25.67;73344.97;5033407;28;20065;-85
2023/09/27 10:50:59;;;;;;;7.30;4.05;;;;;;;-142.57;26.19;72291.78;5031897;28;20068;-85
2023/09/27 10:53:26;;;;;;;14.80;3.58;;;;;;;-142.57;25.64;72799.06;5033078;28;20036;-85
2023/09/27 10:55:52;;;;;;;11.07;3.50;;;;;;;-142.57;25.66;72616.44;5032955;28;20394;-85
2023/09/27 10:58:18;;;;;;;15.75;3.58;;;;;;;-142.57;25.51;72048.34;5032928;28;20421;-86
2023/09/27 11:00:51;;;;;;;13.63;3.50;;;;;;;-142.57;25.96;70896.13;5033558;28;20096;-86
2023/09/27 11:03:17;;;;;;;7.20;3.00;;;;;;;-142.57;26.80;70182.22;5032854;28;20483;-85